sensor_id;sensor_type;location;lat;lon;timestamp;P1;durP1;ratioP1;P2;durP2;ratioP2
3795;SDS011;1913;50.660;7.834;2023-04-24T00:00:25;1.07;;;0.97;;
3795;SDS011;1913;50.660;7.834;2023-04-24T00:02:51;3.07;;;1.27;;
3795;SDS011;1913;50.660;7.834;2023-04-24T00:05:16;3.03;;;1.10;;
3795;SDS011;1913;50.660;7.834;2023-04-24T00:07:43;1.30;;;1.00;;
3795;SDS011;1913;50.660;7.834;2023-04-24T00:10:10;1.70;;;1.20;;
3795;SDS011;1913;50.660;7.834;2023-04-24T00:12:36;1.63;;;1.27;;
3795;SDS011;1913;50.660;7.834;2023-04-24T00:15:02;3.40;;;1.40;;
3795;SDS011;1913;50.660;7.834;2023-04-24T00:17:28;4.40;;;1.40;;
3795;SDS011;1913;50.660;7.834;2023-04-24T00:19:54;1.50;;;1.40;;
3795;SDS011;1913;50.660;7.834;2023-04-24T00:22:26;3.77;;;1.50;;
3795;SDS011;1913;50.660;7.834;2023-04-24T00:24:53;3.03;;;1.50;;
3795;SDS011;1913;50.660;7.834;2023-04-24T00:27:19;2.10;;;1.50;;
3795;SDS011;1913;50.660;7.834;2023-04-24T00:29:45;3.93;;;1.60;;
3795;SDS011;1913;50.660;7.834;2023-04-24T00:32:10;1.97;;;1.77;;
3795;SDS011;1913;50.660;7.834;2023-04-24T00:34:36;2.20;;;1.93;;
3795;SDS011;1913;50.660;7.834;2023-04-24T00:37:01;5.47;;;2.03;;
3795;SDS011;1913;50.660;7.834;2023-04-24T00:39:27;1.97;;;1.77;;
3795;SDS011;1913;50.660;7.834;2023-04-24T00:41:52;1.80;;;1.70;;
3795;SDS011;1913;50.660;7.834;2023-04-24T00:44:18;3.07;;;1.83;;
3795;SDS011;1913;50.660;7.834;2023-04-24T00:46:44;2.73;;;1.80;;
3795;SDS011;1913;50.660;7.834;2023-04-24T00:49:10;3.77;;;1.70;;
3795;SDS011;1913;50.660;7.834;2023-04-24T00:51:37;4.90;;;1.60;;
3795;SDS011;1913;50.660;7.834;2023-04-24T00:54:02;3.40;;;1.50;;
3795;SDS011;1913;50.660;7.834;2023-04-24T00:56:28;3.57;;;1.87;;
3795;SDS011;1913;50.660;7.834;2023-04-24T00:58:53;2.30;;;2.00;;
3795;SDS011;1913;50.660;7.834;2023-04-24T01:01:19;5.33;;;1.90;;
3795;SDS011;1913;50.660;7.834;2023-04-24T01:03:46;1.90;;;1.70;;
3795;SDS011;1913;50.660;7.834;2023-04-24T01:06:12;3.00;;;1.80;;
3795;SDS011;1913;50.660;7.834;2023-04-24T01:08:39;4.67;;;1.90;;
3795;SDS011;1913;50.660;7.834;2023-04-24T01:11:05;2.53;;;2.07;;
3795;SDS011;1913;50.660;7.834;2023-04-24T01:13:31;4.50;;;1.20;;
3795;SDS011;1913;50.660;7.834;2023-04-24T01:15:57;1.30;;;1.13;;
3795;SDS011;1913;50.660;7.834;2023-04-24T01:18:22;2.10;;;1.10;;
3795;SDS011;1913;50.660;7.834;2023-04-24T01:20:48;1.63;;;1.53;;
3795;SDS011;1913;50.660;7.834;2023-04-24T01:23:18;1.70;;;1.53;;
3795;SDS011;1913;50.660;7.834;2023-04-24T01:25:43;2.60;;;1.20;;
3795;SDS011;1913;50.660;7.834;2023-04-24T01:28:09;2.00;;;1.30;;
3795;SDS011;1913;50.660;7.834;2023-04-24T01:30:35;1.30;;;1.20;;
3795;SDS011;1913;50.660;7.834;2023-04-24T01:33:00;1.60;;;1.50;;
3795;SDS011;1913;50.660;7.834;2023-04-24T01:35:26;2.30;;;1.50;;
3795;SDS011;1913;50.660;7.834;2023-04-24T01:37:52;2.20;;;1.33;;
3795;SDS011;1913;50.660;7.834;2023-04-24T01:40:17;2.13;;;1.07;;
3795;SDS011;1913;50.660;7.834;2023-04-24T01:42:43;4.10;;;1.43;;
3795;SDS011;1913;50.660;7.834;2023-04-24T01:45:10;1.53;;;1.23;;
3795;SDS011;1913;50.660;7.834;2023-04-24T01:47:38;1.47;;;1.20;;
3795;SDS011;1913;50.660;7.834;2023-04-24T01:50:05;1.70;;;1.57;;
3795;SDS011;1913;50.660;7.834;2023-04-24T01:52:31;1.43;;;1.27;;
3795;SDS011;1913;50.660;7.834;2023-04-24T01:55:04;1.43;;;1.33;;
3795;SDS011;1913;50.660;7.834;2023-04-24T01:57:31;3.40;;;1.20;;
3795;SDS011;1913;50.660;7.834;2023-04-24T01:59:57;2.70;;;1.70;;
3795;SDS011;1913;50.660;7.834;2023-04-24T02:02:23;1.97;;;1.80;;
3795;SDS011;1913;50.660;7.834;2023-04-24T02:04:55;3.07;;;1.77;;
3795;SDS011;1913;50.660;7.834;2023-04-24T02:07:20;4.30;;;1.63;;
3795;SDS011;1913;50.660;7.834;2023-04-24T02:09:46;2.80;;;1.60;;
3795;SDS011;1913;50.660;7.834;2023-04-24T02:12:11;2.10;;;1.90;;
3795;SDS011;1913;50.660;7.834;2023-04-24T02:14:37;14.50;;;2.60;;
3795;SDS011;1913;50.660;7.834;2023-04-24T02:17:03;2.87;;;1.73;;
3795;SDS011;1913;50.660;7.834;2023-04-24T02:19:28;2.63;;;1.70;;
3795;SDS011;1913;50.660;7.834;2023-04-24T02:21:54;2.67;;;1.70;;
3795;SDS011;1913;50.660;7.834;2023-04-24T02:24:19;1.97;;;1.50;;
3795;SDS011;1913;50.660;7.834;2023-04-24T02:26:45;1.80;;;1.70;;
3795;SDS011;1913;50.660;7.834;2023-04-24T02:29:10;3.13;;;1.80;;
3795;SDS011;1913;50.660;7.834;2023-04-24T02:31:35;4.13;;;2.50;;
3795;SDS011;1913;50.660;7.834;2023-04-24T02:34:01;4.03;;;2.10;;
3795;SDS011;1913;50.660;7.834;2023-04-24T02:36:26;5.80;;;2.00;;
3795;SDS011;1913;50.660;7.834;2023-04-24T02:38:52;2.67;;;1.97;;
3795;SDS011;1913;50.660;7.834;2023-04-24T02:41:17;2.20;;;2.00;;
3795;SDS011;1913;50.660;7.834;2023-04-24T02:43:42;2.13;;;2.03;;
3795;SDS011;1913;50.660;7.834;2023-04-24T02:46:08;2.20;;;2.00;;
3795;SDS011;1913;50.660;7.834;2023-04-24T02:48:33;2.63;;;1.93;;
3795;SDS011;1913;50.660;7.834;2023-04-24T02:50:59;2.10;;;1.90;;
3795;SDS011;1913;50.660;7.834;2023-04-24T02:53:24;2.50;;;2.30;;
3795;SDS011;1913;50.660;7.834;2023-04-24T02:55:50;4.60;;;2.57;;
3795;SDS011;1913;50.660;7.834;2023-04-24T02:58:15;3.13;;;2.70;;
3795;SDS011;1913;50.660;7.834;2023-04-24T03:00:42;3.07;;;2.77;;
3795;SDS011;1913;50.660;7.834;2023-04-24T03:03:08;5.53;;;2.63;;
3795;SDS011;1913;50.660;7.834;2023-04-24T03:05:33;2.70;;;2.50;;
3795;SDS011;1913;50.660;7.834;2023-04-24T03:07:59;2.90;;;2.17;;
3795;SDS011;1913;50.660;7.834;2023-04-24T03:10:25;2.43;;;2.23;;
3795;SDS011;1913;50.660;7.834;2023-04-24T03:12:50;5.13;;;2.10;;
3795;SDS011;1913;50.660;7.834;2023-04-24T03:15:16;3.50;;;2.70;;
3795;SDS011;1913;50.660;7.834;2023-04-24T03:17:41;2.97;;;2.67;;
3795;SDS011;1913;50.660;7.834;2023-04-24T03:20:07;2.73;;;2.53;;
3795;SDS011;1913;50.660;7.834;2023-04-24T03:22:33;4.90;;;2.67;;
3795;SDS011;1913;50.660;7.834;2023-04-24T03:24:59;4.10;;;2.80;;
3795;SDS011;1913;50.660;7.834;2023-04-24T03:27:25;5.07;;;3.67;;
3795;SDS011;1913;50.660;7.834;2023-04-24T03:29:51;5.60;;;2.90;;
3795;SDS011;1913;50.660;7.834;2023-04-24T03:32:20;4.77;;;3.43;;
3795;SDS011;1913;50.660;7.834;2023-04-24T03:34:47;4.50;;;3.20;;
3795;SDS011;1913;50.660;7.834;2023-04-24T03:37:12;5.47;;;3.50;;
3795;SDS011;1913;50.660;7.834;2023-04-24T03:39:38;4.77;;;3.80;;
3795;SDS011;1913;50.660;7.834;2023-04-24T03:42:03;5.60;;;3.27;;
3795;SDS011;1913;50.660;7.834;2023-04-24T03:44:29;4.77;;;3.63;;
3795;SDS011;1913;50.660;7.834;2023-04-24T03:46:54;4.87;;;3.27;;
3795;SDS011;1913;50.660;7.834;2023-04-24T03:49:20;4.60;;;3.60;;
3795;SDS011;1913;50.660;7.834;2023-04-24T03:51:45;7.27;;;4.17;;
3795;SDS011;1913;50.660;7.834;2023-04-24T03:54:11;4.53;;;3.80;;
3795;SDS011;1913;50.660;7.834;2023-04-24T03:56:36;5.00;;;4.23;;
3795;SDS011;1913;50.660;7.834;2023-04-24T03:59:01;8.10;;;4.70;;
3795;SDS011;1913;50.660;7.834;2023-04-24T04:01:27;4.90;;;4.00;;
3795;SDS011;1913;50.660;7.834;2023-04-24T04:03:53;7.23;;;4.43;;
3795;SDS011;1913;50.660;7.834;2023-04-24T04:06:18;5.10;;;4.43;;
3795;SDS011;1913;50.660;7.834;2023-04-24T04:08:44;6.47;;;4.60;;
3795;SDS011;1913;50.660;7.834;2023-04-24T04:11:09;6.97;;;5.10;;
3795;SDS011;1913;50.660;7.834;2023-04-24T04:13:35;7.50;;;5.17;;
3795;SDS011;1913;50.660;7.834;2023-04-24T04:16:01;9.27;;;5.23;;
3795;SDS011;1913;50.660;7.834;2023-04-24T04:18:26;6.60;;;5.50;;
3795;SDS011;1913;50.660;7.834;2023-04-24T04:20:52;7.20;;;5.60;;
3795;SDS011;1913;50.660;7.834;2023-04-24T04:23:17;9.30;;;5.70;;
3795;SDS011;1913;50.660;7.834;2023-04-24T04:25:42;6.20;;;5.23;;
3795;SDS011;1913;50.660;7.834;2023-04-24T04:28:08;7.00;;;6.23;;
3795;SDS011;1913;50.660;7.834;2023-04-24T04:30:33;9.90;;;6.20;;
3795;SDS011;1913;50.660;7.834;2023-04-24T04:32:59;6.50;;;5.43;;
3795;SDS011;1913;50.660;7.834;2023-04-24T04:35:25;8.37;;;6.27;;
3795;SDS011;1913;50.660;7.834;2023-04-24T04:37:50;6.53;;;5.60;;
3795;SDS011;1913;50.660;7.834;2023-04-24T04:40:16;8.57;;;6.13;;
3795;SDS011;1913;50.660;7.834;2023-04-24T04:42:42;12.53;;;5.57;;
3795;SDS011;1913;50.660;7.834;2023-04-24T04:45:11;7.87;;;5.47;;
3795;SDS011;1913;50.660;7.834;2023-04-24T04:47:36;12.93;;;6.57;;
3795;SDS011;1913;50.660;7.834;2023-04-24T04:50:02;8.20;;;5.70;;
3795;SDS011;1913;50.660;7.834;2023-04-24T04:52:29;9.30;;;6.20;;
3795;SDS011;1913;50.660;7.834;2023-04-24T04:54:54;9.00;;;6.40;;
3795;SDS011;1913;50.660;7.834;2023-04-24T04:57:20;7.63;;;5.60;;
3795;SDS011;1913;50.660;7.834;2023-04-24T04:59:46;8.33;;;5.47;;
3795;SDS011;1913;50.660;7.834;2023-04-24T05:02:12;7.00;;;5.40;;
3795;SDS011;1913;50.660;7.834;2023-04-24T05:04:37;9.43;;;5.93;;
3795;SDS011;1913;50.660;7.834;2023-04-24T05:07:02;13.00;;;5.60;;
3795;SDS011;1913;50.660;7.834;2023-04-24T05:09:28;9.57;;;5.87;;
3795;SDS011;1913;50.660;7.834;2023-04-24T05:11:55;8.53;;;5.07;;
3795;SDS011;1913;50.660;7.834;2023-04-24T05:14:21;11.63;;;5.70;;
3795;SDS011;1913;50.660;7.834;2023-04-24T05:16:47;7.57;;;5.27;;
3795;SDS011;1913;50.660;7.834;2023-04-24T05:19:12;8.00;;;5.20;;
3795;SDS011;1913;50.660;7.834;2023-04-24T05:21:39;5.30;;;4.70;;
3795;SDS011;1913;50.660;7.834;2023-04-24T05:24:05;6.87;;;4.50;;
3795;SDS011;1913;50.660;7.834;2023-04-24T05:26:31;6.87;;;5.03;;
3795;SDS011;1913;50.660;7.834;2023-04-24T05:28:56;7.70;;;4.33;;
3795;SDS011;1913;50.660;7.834;2023-04-24T05:31:22;6.83;;;4.90;;
3795;SDS011;1913;50.660;7.834;2023-04-24T05:33:47;9.13;;;5.27;;
3795;SDS011;1913;50.660;7.834;2023-04-24T05:36:13;5.43;;;3.97;;
3795;SDS011;1913;50.660;7.834;2023-04-24T05:38:38;6.83;;;4.60;;
3795;SDS011;1913;50.660;7.834;2023-04-24T05:41:04;8.20;;;5.07;;
3795;SDS011;1913;50.660;7.834;2023-04-24T05:43:29;9.63;;;5.87;;
3795;SDS011;1913;50.660;7.834;2023-04-24T05:45:55;5.90;;;4.87;;
3795;SDS011;1913;50.660;7.834;2023-04-24T05:48:20;5.60;;;5.00;;
3795;SDS011;1913;50.660;7.834;2023-04-24T05:50:47;10.00;;;5.87;;
3795;SDS011;1913;50.660;7.834;2023-04-24T05:53:13;8.90;;;5.73;;
3795;SDS011;1913;50.660;7.834;2023-04-24T05:55:38;11.60;;;6.30;;
3795;SDS011;1913;50.660;7.834;2023-04-24T05:58:04;7.10;;;5.70;;
3795;SDS011;1913;50.660;7.834;2023-04-24T06:00:29;8.87;;;6.70;;
3795;SDS011;1913;50.660;7.834;2023-04-24T06:02:55;11.90;;;6.40;;
3795;SDS011;1913;50.660;7.834;2023-04-24T06:05:21;9.17;;;6.70;;
3795;SDS011;1913;50.660;7.834;2023-04-24T06:07:47;10.30;;;6.73;;
3795;SDS011;1913;50.660;7.834;2023-04-24T06:10:13;9.10;;;6.77;;
3795;SDS011;1913;50.660;7.834;2023-04-24T06:12:38;10.83;;;6.33;;
3795;SDS011;1913;50.660;7.834;2023-04-24T06:15:04;8.17;;;5.93;;
3795;SDS011;1913;50.660;7.834;2023-04-24T06:17:30;7.63;;;6.13;;
3795;SDS011;1913;50.660;7.834;2023-04-24T06:19:56;12.23;;;6.87;;
3795;SDS011;1913;50.660;7.834;2023-04-24T06:22:21;9.63;;;6.40;;
3795;SDS011;1913;50.660;7.834;2023-04-24T06:24:47;10.77;;;6.53;;
3795;SDS011;1913;50.660;7.834;2023-04-24T06:27:13;11.27;;;6.27;;
3795;SDS011;1913;50.660;7.834;2023-04-24T06:29:39;9.93;;;6.67;;
3795;SDS011;1913;50.660;7.834;2023-04-24T06:32:04;8.00;;;5.93;;
3795;SDS011;1913;50.660;7.834;2023-04-24T06:34:30;14.40;;;7.40;;
3795;SDS011;1913;50.660;7.834;2023-04-24T06:36:56;13.20;;;7.40;;
3795;SDS011;1913;50.660;7.834;2023-04-24T06:39:21;7.40;;;5.53;;
3795;SDS011;1913;50.660;7.834;2023-04-24T06:41:47;9.33;;;6.40;;
3795;SDS011;1913;50.660;7.834;2023-04-24T06:44:12;7.97;;;6.47;;
3795;SDS011;1913;50.660;7.834;2023-04-24T06:46:39;6.87;;;6.10;;
3795;SDS011;1913;50.660;7.834;2023-04-24T06:49:06;11.63;;;6.80;;
3795;SDS011;1913;50.660;7.834;2023-04-24T06:51:31;8.17;;;6.47;;
3795;SDS011;1913;50.660;7.834;2023-04-24T06:53:58;9.87;;;6.73;;
3795;SDS011;1913;50.660;7.834;2023-04-24T06:56:24;8.87;;;7.00;;
3795;SDS011;1913;50.660;7.834;2023-04-24T06:58:50;8.90;;;5.97;;
3795;SDS011;1913;50.660;7.834;2023-04-24T07:01:16;8.80;;;6.43;;
3795;SDS011;1913;50.660;7.834;2023-04-24T07:03:41;8.57;;;6.50;;
3795;SDS011;1913;50.660;7.834;2023-04-24T07:06:07;9.90;;;6.70;;
3795;SDS011;1913;50.660;7.834;2023-04-24T07:08:33;9.17;;;7.10;;
3795;SDS011;1913;50.660;7.834;2023-04-24T07:10:58;11.27;;;7.30;;
3795;SDS011;1913;50.660;7.834;2023-04-24T07:13:24;11.53;;;6.90;;
3795;SDS011;1913;50.660;7.834;2023-04-24T07:15:51;9.57;;;6.97;;
3795;SDS011;1913;50.660;7.834;2023-04-24T07:18:19;12.70;;;7.53;;
3795;SDS011;1913;50.660;7.834;2023-04-24T07:20:45;10.80;;;7.40;;
3795;SDS011;1913;50.660;7.834;2023-04-24T07:23:10;16.47;;;7.00;;
3795;SDS011;1913;50.660;7.834;2023-04-24T07:25:36;10.30;;;6.93;;
3795;SDS011;1913;50.660;7.834;2023-04-24T07:28:01;14.37;;;7.03;;
3795;SDS011;1913;50.660;7.834;2023-04-24T07:30:27;12.10;;;6.93;;
3795;SDS011;1913;50.660;7.834;2023-04-24T07:32:54;10.50;;;7.13;;
3795;SDS011;1913;50.660;7.834;2023-04-24T07:35:20;12.70;;;7.30;;
3795;SDS011;1913;50.660;7.834;2023-04-24T07:37:45;10.90;;;6.80;;
3795;SDS011;1913;50.660;7.834;2023-04-24T07:40:14;10.00;;;6.87;;
3795;SDS011;1913;50.660;7.834;2023-04-24T07:42:40;9.67;;;6.57;;
3795;SDS011;1913;50.660;7.834;2023-04-24T07:45:06;9.80;;;6.53;;
3795;SDS011;1913;50.660;7.834;2023-04-24T07:47:32;8.53;;;6.50;;
3795;SDS011;1913;50.660;7.834;2023-04-24T07:49:59;8.63;;;6.03;;
3795;SDS011;1913;50.660;7.834;2023-04-24T07:52:25;10.60;;;6.77;;
3795;SDS011;1913;50.660;7.834;2023-04-24T07:54:50;10.27;;;6.50;;
3795;SDS011;1913;50.660;7.834;2023-04-24T07:57:19;15.00;;;8.20;;
3795;SDS011;1913;50.660;7.834;2023-04-24T07:59:44;9.67;;;7.50;;
3795;SDS011;1913;50.660;7.834;2023-04-24T08:02:10;10.83;;;7.33;;
3795;SDS011;1913;50.660;7.834;2023-04-24T08:04:35;13.73;;;8.17;;
3795;SDS011;1913;50.660;7.834;2023-04-24T08:07:01;13.73;;;8.30;;
3795;SDS011;1913;50.660;7.834;2023-04-24T08:09:26;13.57;;;7.97;;
3795;SDS011;1913;50.660;7.834;2023-04-24T08:11:52;11.90;;;8.30;;
3795;SDS011;1913;50.660;7.834;2023-04-24T08:14:18;11.93;;;8.90;;
3795;SDS011;1913;50.660;7.834;2023-04-24T08:16:43;9.40;;;7.33;;
3795;SDS011;1913;50.660;7.834;2023-04-24T08:19:09;10.30;;;7.63;;
3795;SDS011;1913;50.660;7.834;2023-04-24T08:21:34;14.00;;;8.40;;
3795;SDS011;1913;50.660;7.834;2023-04-24T08:24:00;11.47;;;9.23;;
3795;SDS011;1913;50.660;7.834;2023-04-24T08:26:30;10.70;;;8.00;;
3795;SDS011;1913;50.660;7.834;2023-04-24T08:28:55;9.43;;;7.80;;
3795;SDS011;1913;50.660;7.834;2023-04-24T08:31:21;14.83;;;9.20;;
3795;SDS011;1913;50.660;7.834;2023-04-24T08:33:47;13.00;;;8.20;;
3795;SDS011;1913;50.660;7.834;2023-04-24T08:36:13;12.50;;;8.63;;
3795;SDS011;1913;50.660;7.834;2023-04-24T08:38:38;11.83;;;7.80;;
3795;SDS011;1913;50.660;7.834;2023-04-24T08:41:03;11.87;;;8.63;;
3795;SDS011;1913;50.660;7.834;2023-04-24T08:43:30;18.83;;;10.00;;
3795;SDS011;1913;50.660;7.834;2023-04-24T08:45:57;12.40;;;8.67;;
3795;SDS011;1913;50.660;7.834;2023-04-24T08:48:24;13.47;;;9.23;;
3795;SDS011;1913;50.660;7.834;2023-04-24T08:50:50;12.10;;;8.50;;
3795;SDS011;1913;50.660;7.834;2023-04-24T08:53:16;12.80;;;8.57;;
3795;SDS011;1913;50.660;7.834;2023-04-24T08:55:43;11.67;;;8.53;;
3795;SDS011;1913;50.660;7.834;2023-04-24T08:58:12;12.30;;;8.00;;
3795;SDS011;1913;50.660;7.834;2023-04-24T09:00:39;10.60;;;7.73;;
3795;SDS011;1913;50.660;7.834;2023-04-24T09:03:04;12.30;;;7.63;;
3795;SDS011;1913;50.660;7.834;2023-04-24T09:05:31;13.20;;;7.70;;
3795;SDS011;1913;50.660;7.834;2023-04-24T09:07:57;12.17;;;7.47;;
3795;SDS011;1913;50.660;7.834;2023-04-24T09:10:26;9.67;;;6.10;;
3795;SDS011;1913;50.660;7.834;2023-04-24T09:12:52;7.10;;;4.40;;
3795;SDS011;1913;50.660;7.834;2023-04-24T09:15:19;5.90;;;4.77;;
3795;SDS011;1913;50.660;7.834;2023-04-24T09:17:45;4.90;;;2.97;;
3795;SDS011;1913;50.660;7.834;2023-04-24T09:20:11;4.43;;;2.50;;
3795;SDS011;1913;50.660;7.834;2023-04-24T09:22:37;3.00;;;2.70;;
3795;SDS011;1913;50.660;7.834;2023-04-24T09:25:04;3.80;;;3.27;;
3795;SDS011;1913;50.660;7.834;2023-04-24T09:27:32;4.53;;;1.80;;
3795;SDS011;1913;50.660;7.834;2023-04-24T09:29:58;1.77;;;1.67;;
3795;SDS011;1913;50.660;7.834;2023-04-24T09:32:24;3.37;;;1.80;;
3795;SDS011;1913;50.660;7.834;2023-04-24T09:37:39;3.03;;;1.57;;
3795;SDS011;1913;50.660;7.834;2023-04-24T09:40:12;2.07;;;1.87;;
3795;SDS011;1913;50.660;7.834;2023-04-24T09:42:40;3.20;;;2.30;;
3795;SDS011;1913;50.660;7.834;2023-04-24T09:45:10;3.37;;;2.90;;
3795;SDS011;1913;50.660;7.834;2023-04-24T09:47:39;2.20;;;2.00;;
3795;SDS011;1913;50.660;7.834;2023-04-24T09:50:16;2.63;;;2.40;;
3795;SDS011;1913;50.660;7.834;2023-04-24T09:52:46;4.20;;;2.50;;
3795;SDS011;1913;50.660;7.834;2023-04-24T09:55:20;4.30;;;2.63;;
3795;SDS011;1913;50.660;7.834;2023-04-24T09:57:53;3.37;;;2.40;;
3795;SDS011;1913;50.660;7.834;2023-04-24T10:00:28;4.03;;;2.97;;
3795;SDS011;1913;50.660;7.834;2023-04-24T10:03:01;3.43;;;2.77;;
3795;SDS011;1913;50.660;7.834;2023-04-24T10:05:34;3.43;;;3.13;;
3795;SDS011;1913;50.660;7.834;2023-04-24T10:08:09;7.13;;;3.30;;
3795;SDS011;1913;50.660;7.834;2023-04-24T10:10:40;5.03;;;3.63;;
3795;SDS011;1913;50.660;7.834;2023-04-24T10:13:07;3.63;;;3.27;;
3795;SDS011;1913;50.660;7.834;2023-04-24T10:15:34;3.23;;;2.93;;
3795;SDS011;1913;50.660;7.834;2023-04-24T10:18:00;6.33;;;3.93;;
3795;SDS011;1913;50.660;7.834;2023-04-24T10:20:30;4.17;;;3.07;;
3795;SDS011;1913;50.660;7.834;2023-04-24T10:22:59;5.97;;;3.57;;
3795;SDS011;1913;50.660;7.834;2023-04-24T10:25:32;5.90;;;3.60;;
3795;SDS011;1913;50.660;7.834;2023-04-24T10:27:59;3.10;;;2.80;;
3795;SDS011;1913;50.660;7.834;2023-04-24T10:30:27;4.47;;;2.40;;
3795;SDS011;1913;50.660;7.834;2023-04-24T10:32:53;3.80;;;3.00;;
3795;SDS011;1913;50.660;7.834;2023-04-24T10:35:19;3.87;;;2.87;;
3795;SDS011;1913;50.660;7.834;2023-04-24T10:38:06;6.03;;;3.10;;
3795;SDS011;1913;50.660;7.834;2023-04-24T10:40:36;3.90;;;2.80;;
3795;SDS011;1913;50.660;7.834;2023-04-24T10:43:03;3.40;;;2.57;;
3795;SDS011;1913;50.660;7.834;2023-04-24T10:45:31;4.13;;;3.10;;
3795;SDS011;1913;50.660;7.834;2023-04-24T10:48:04;2.90;;;2.53;;
3795;SDS011;1913;50.660;7.834;2023-04-24T10:53:16;3.20;;;2.70;;
3795;SDS011;1913;50.660;7.834;2023-04-24T10:55:44;5.33;;;2.90;;
3795;SDS011;1913;50.660;7.834;2023-04-24T10:58:14;9.77;;;3.37;;
3795;SDS011;1913;50.660;7.834;2023-04-24T11:00:42;16.17;;;3.63;;
3795;SDS011;1913;50.660;7.834;2023-04-24T11:06:15;6.10;;;3.40;;
3795;SDS011;1913;50.660;7.834;2023-04-24T11:08:44;22.93;;;4.00;;
3795;SDS011;1913;50.660;7.834;2023-04-24T11:14:21;5.93;;;3.80;;
3795;SDS011;1913;50.660;7.834;2023-04-24T11:21:45;5.13;;;3.60;;
3795;SDS011;1913;50.660;7.834;2023-04-24T11:26:58;5.20;;;2.77;;
3795;SDS011;1913;50.660;7.834;2023-04-24T11:32:22;3.70;;;3.00;;
3795;SDS011;1913;50.660;7.834;2023-04-24T11:37:22;4.30;;;3.40;;
3795;SDS011;1913;50.660;7.834;2023-04-24T11:39:52;24.47;;;5.47;;
3795;SDS011;1913;50.660;7.834;2023-04-24T11:42:19;13.53;;;4.63;;
3795;SDS011;1913;50.660;7.834;2023-04-24T11:44:47;15.37;;;4.93;;
3795;SDS011;1913;50.660;7.834;2023-04-24T11:47:14;9.90;;;4.80;;
3795;SDS011;1913;50.660;7.834;2023-04-24T11:49:40;9.30;;;5.20;;
3795;SDS011;1913;50.660;7.834;2023-04-24T11:52:05;9.70;;;5.83;;
3795;SDS011;1913;50.660;7.834;2023-04-24T11:54:31;17.93;;;5.90;;
3795;SDS011;1913;50.660;7.834;2023-04-24T11:56:57;13.37;;;7.20;;
3795;SDS011;1913;50.660;7.834;2023-04-24T11:59:23;17.57;;;7.60;;
3795;SDS011;1913;50.660;7.834;2023-04-24T12:01:48;13.03;;;7.47;;
3795;SDS011;1913;50.660;7.834;2023-04-24T12:04:15;11.50;;;7.07;;
3795;SDS011;1913;50.660;7.834;2023-04-24T12:07:15;11.20;;;7.10;;
3795;SDS011;1913;50.660;7.834;2023-04-24T12:09:40;12.80;;;6.60;;
3795;SDS011;1913;50.660;7.834;2023-04-24T12:12:11;12.80;;;7.07;;
3795;SDS011;1913;50.660;7.834;2023-04-24T12:14:47;12.00;;;7.50;;
3795;SDS011;1913;50.660;7.834;2023-04-24T12:17:14;13.80;;;8.43;;
3795;SDS011;1913;50.660;7.834;2023-04-24T12:19:47;14.57;;;8.90;;
3795;SDS011;1913;50.660;7.834;2023-04-24T12:22:13;19.73;;;9.20;;
3795;SDS011;1913;50.660;7.834;2023-04-24T12:24:58;14.20;;;9.00;;
3795;SDS011;1913;50.660;7.834;2023-04-24T12:27:26;16.57;;;10.53;;
3795;SDS011;1913;50.660;7.834;2023-04-24T12:29:58;21.23;;;11.60;;
3795;SDS011;1913;50.660;7.834;2023-04-24T12:32:28;16.23;;;9.83;;
3795;SDS011;1913;50.660;7.834;2023-04-24T12:34:54;14.43;;;9.23;;
3795;SDS011;1913;50.660;7.834;2023-04-24T12:37:20;13.10;;;9.40;;
3795;SDS011;1913;50.660;7.834;2023-04-24T12:39:58;14.10;;;8.10;;
3795;SDS011;1913;50.660;7.834;2023-04-24T12:42:25;16.57;;;9.73;;
3795;SDS011;1913;50.660;7.834;2023-04-24T12:45:04;16.13;;;9.40;;
3795;SDS011;1913;50.660;7.834;2023-04-24T12:47:31;21.10;;;9.60;;
3795;SDS011;1913;50.660;7.834;2023-04-24T12:49:58;15.53;;;9.50;;
3795;SDS011;1913;50.660;7.834;2023-04-24T12:52:25;17.87;;;10.30;;
3795;SDS011;1913;50.660;7.834;2023-04-24T12:54:58;17.33;;;10.47;;
3795;SDS011;1913;50.660;7.834;2023-04-24T12:57:26;22.10;;;9.50;;
3795;SDS011;1913;50.660;7.834;2023-04-24T12:59:57;16.33;;;10.07;;
3795;SDS011;1913;50.660;7.834;2023-04-24T13:02:27;20.00;;;9.20;;
3795;SDS011;1913;50.660;7.834;2023-04-24T13:04:57;16.43;;;9.37;;
3795;SDS011;1913;50.660;7.834;2023-04-24T13:07:23;15.00;;;9.30;;
3795;SDS011;1913;50.660;7.834;2023-04-24T13:09:50;22.43;;;10.43;;
3795;SDS011;1913;50.660;7.834;2023-04-24T13:12:16;15.40;;;9.73;;
3795;SDS011;1913;50.660;7.834;2023-04-24T13:14:41;18.00;;;11.00;;
3795;SDS011;1913;50.660;7.834;2023-04-24T13:17:07;11.77;;;8.13;;
3795;SDS011;1913;50.660;7.834;2023-04-24T13:19:36;15.53;;;11.20;;
3795;SDS011;1913;50.660;7.834;2023-04-24T13:22:04;19.20;;;10.80;;
3795;SDS011;1913;50.660;7.834;2023-04-24T13:24:34;16.40;;;8.33;;
3795;SDS011;1913;50.660;7.834;2023-04-24T13:26:59;8.87;;;6.47;;
3795;SDS011;1913;50.660;7.834;2023-04-24T13:29:26;13.70;;;7.60;;
3795;SDS011;1913;50.660;7.834;2023-04-24T13:31:52;7.50;;;4.93;;
3795;SDS011;1913;50.660;7.834;2023-04-24T13:34:20;8.80;;;5.67;;
3795;SDS011;1913;50.660;7.834;2023-04-24T13:36:46;10.70;;;7.37;;
3795;SDS011;1913;50.660;7.834;2023-04-24T13:39:12;19.00;;;11.23;;
3795;SDS011;1913;50.660;7.834;2023-04-24T13:41:38;10.67;;;7.70;;
3795;SDS011;1913;50.660;7.834;2023-04-24T13:44:04;13.83;;;7.60;;
3795;SDS011;1913;50.660;7.834;2023-04-24T13:46:31;17.33;;;8.13;;
3795;SDS011;1913;50.660;7.834;2023-04-24T13:48:56;13.10;;;7.50;;
3795;SDS011;1913;50.660;7.834;2023-04-24T13:51:22;23.03;;;11.23;;
3795;SDS011;1913;50.660;7.834;2023-04-24T13:53:48;13.00;;;8.17;;
3795;SDS011;1913;50.660;7.834;2023-04-24T13:56:13;16.00;;;8.23;;
3795;SDS011;1913;50.660;7.834;2023-04-24T13:58:39;13.07;;;7.87;;
3795;SDS011;1913;50.660;7.834;2023-04-24T14:01:05;15.90;;;8.50;;
3795;SDS011;1913;50.660;7.834;2023-04-24T14:03:32;14.20;;;8.10;;
3795;SDS011;1913;50.660;7.834;2023-04-24T14:05:58;13.47;;;8.90;;
3795;SDS011;1913;50.660;7.834;2023-04-24T14:08:24;18.07;;;10.20;;
3795;SDS011;1913;50.660;7.834;2023-04-24T14:10:50;20.60;;;11.87;;
3795;SDS011;1913;50.660;7.834;2023-04-24T14:13:15;23.53;;;11.80;;
3795;SDS011;1913;50.660;7.834;2023-04-24T14:15:41;14.60;;;8.43;;
3795;SDS011;1913;50.660;7.834;2023-04-24T14:18:07;16.00;;;8.90;;
3795;SDS011;1913;50.660;7.834;2023-04-24T14:20:33;10.30;;;6.97;;
3795;SDS011;1913;50.660;7.834;2023-04-24T14:22:58;8.67;;;6.33;;
3795;SDS011;1913;50.660;7.834;2023-04-24T14:25:26;15.10;;;8.10;;
3795;SDS011;1913;50.660;7.834;2023-04-24T14:27:52;11.73;;;6.17;;
3795;SDS011;1913;50.660;7.834;2023-04-24T14:30:18;11.30;;;6.73;;
3795;SDS011;1913;50.660;7.834;2023-04-24T14:32:44;15.93;;;8.70;;
3795;SDS011;1913;50.660;7.834;2023-04-24T14:35:09;16.17;;;10.00;;
3795;SDS011;1913;50.660;7.834;2023-04-24T14:37:35;15.90;;;9.30;;
3795;SDS011;1913;50.660;7.834;2023-04-24T14:40:01;26.70;;;11.90;;
3795;SDS011;1913;50.660;7.834;2023-04-24T14:42:27;13.63;;;7.40;;
3795;SDS011;1913;50.660;7.834;2023-04-24T14:44:53;12.93;;;7.70;;
3795;SDS011;1913;50.660;7.834;2023-04-24T14:47:19;15.67;;;7.50;;
3795;SDS011;1913;50.660;7.834;2023-04-24T14:49:47;10.93;;;6.10;;
3795;SDS011;1913;50.660;7.834;2023-04-24T14:52:13;10.67;;;5.53;;
3795;SDS011;1913;50.660;7.834;2023-04-24T14:54:38;10.03;;;5.90;;
3795;SDS011;1913;50.660;7.834;2023-04-24T14:57:06;11.53;;;6.37;;
3795;SDS011;1913;50.660;7.834;2023-04-24T14:59:32;10.77;;;6.10;;
3795;SDS011;1913;50.660;7.834;2023-04-24T15:02:01;14.80;;;7.40;;
3795;SDS011;1913;50.660;7.834;2023-04-24T15:04:26;13.20;;;7.13;;
3795;SDS011;1913;50.660;7.834;2023-04-24T15:06:53;9.73;;;6.57;;
3795;SDS011;1913;50.660;7.834;2023-04-24T15:09:19;11.07;;;6.40;;
3795;SDS011;1913;50.660;7.834;2023-04-24T15:11:45;13.50;;;7.20;;
3795;SDS011;1913;50.660;7.834;2023-04-24T15:14:11;12.83;;;7.67;;
3795;SDS011;1913;50.660;7.834;2023-04-24T15:16:37;14.20;;;8.23;;
3795;SDS011;1913;50.660;7.834;2023-04-24T15:19:02;15.17;;;8.73;;
3795;SDS011;1913;50.660;7.834;2023-04-24T15:21:28;13.77;;;7.53;;
3795;SDS011;1913;50.660;7.834;2023-04-24T15:23:53;14.93;;;8.27;;
3795;SDS011;1913;50.660;7.834;2023-04-24T15:26:19;11.43;;;7.00;;
3795;SDS011;1913;50.660;7.834;2023-04-24T15:28:45;12.93;;;7.00;;
3795;SDS011;1913;50.660;7.834;2023-04-24T15:31:12;13.23;;;6.93;;